sensor_id;sensor_type;location;lat;lon;timestamp;P1;durP1;ratioP1;P2;durP2;ratioP2
6997;SDS011;3539;47.982;12.238;2022-09-09T00:00:47;1.73;;;1.63;;
6997;SDS011;3539;47.982;12.238;2022-09-09T00:03:17;2.30;;;1.43;;
6997;SDS011;3539;47.982;12.238;2022-09-09T00:05:48;1.80;;;1.40;;
6997;SDS011;3539;47.982;12.238;2022-09-09T00:08:19;2.47;;;1.60;;
6997;SDS011;3539;47.982;12.238;2022-09-09T00:10:50;3.23;;;1.30;;
6997;SDS011;3539;47.982;12.238;2022-09-09T00:13:22;1.90;;;1.70;;
6997;SDS011;3539;47.982;12.238;2022-09-09T00:15:54;5.00;;;1.27;;
6997;SDS011;3539;47.982;12.238;2022-09-09T00:18:24;1.60;;;1.30;;
6997;SDS011;3539;47.982;12.238;2022-09-09T00:20:56;1.40;;;1.30;;
6997;SDS011;3539;47.982;12.238;2022-09-09T00:23:25;2.40;;;1.37;;
6997;SDS011;3539;47.982;12.238;2022-09-09T00:25:58;1.97;;;1.37;;
6997;SDS011;3539;47.982;12.238;2022-09-09T00:28:29;2.90;;;1.40;;
6997;SDS011;3539;47.982;12.238;2022-09-09T00:30:59;1.83;;;1.43;;
6997;SDS011;3539;47.982;12.238;2022-09-09T00:33:27;2.63;;;1.33;;
6997;SDS011;3539;47.982;12.238;2022-09-09T00:35:56;1.97;;;1.50;;
6997;SDS011;3539;47.982;12.238;2022-09-09T00:38:24;3.20;;;1.70;;
6997;SDS011;3539;47.982;12.238;2022-09-09T00:40:53;3.03;;;1.60;;
6997;SDS011;3539;47.982;12.238;2022-09-09T00:43:26;3.10;;;1.53;;
6997;SDS011;3539;47.982;12.238;2022-09-09T00:45:59;1.63;;;1.30;;
6997;SDS011;3539;47.982;12.238;2022-09-09T00:48:35;3.97;;;1.70;;
6997;SDS011;3539;47.982;12.238;2022-09-09T00:51:08;1.53;;;1.43;;
6997;SDS011;3539;47.982;12.238;2022-09-09T00:53:53;3.20;;;1.40;;
6997;SDS011;3539;47.982;12.238;2022-09-09T00:56:27;1.93;;;1.30;;
6997;SDS011;3539;47.982;12.238;2022-09-09T00:58:58;1.93;;;1.30;;
6997;SDS011;3539;47.982;12.238;2022-09-09T01:01:29;1.37;;;1.27;;
6997;SDS011;3539;47.982;12.238;2022-09-09T01:03:56;1.87;;;1.43;;
6997;SDS011;3539;47.982;12.238;2022-09-09T01:06:26;1.57;;;1.23;;
6997;SDS011;3539;47.982;12.238;2022-09-09T01:08:59;4.77;;;1.20;;
6997;SDS011;3539;47.982;12.238;2022-09-09T01:11:33;1.80;;;1.60;;
6997;SDS011;3539;47.982;12.238;2022-09-09T01:14:13;3.00;;;1.50;;
6997;SDS011;3539;47.982;12.238;2022-09-09T01:16:43;3.80;;;1.33;;
6997;SDS011;3539;47.982;12.238;2022-09-09T01:19:11;2.17;;;1.60;;
6997;SDS011;3539;47.982;12.238;2022-09-09T01:21:44;3.23;;;1.50;;
6997;SDS011;3539;47.982;12.238;2022-09-09T01:24:21;1.40;;;1.30;;
6997;SDS011;3539;47.982;12.238;2022-09-09T01:26:53;1.87;;;1.40;;
6997;SDS011;3539;47.982;12.238;2022-09-09T01:29:23;1.33;;;1.23;;
6997;SDS011;3539;47.982;12.238;2022-09-09T01:31:53;1.53;;;1.20;;
6997;SDS011;3539;47.982;12.238;2022-09-09T01:34:22;3.37;;;1.53;;
6997;SDS011;3539;47.982;12.238;2022-09-09T01:36:56;3.97;;;1.40;;
6997;SDS011;3539;47.982;12.238;2022-09-09T01:39:25;3.63;;;1.50;;
6997;SDS011;3539;47.982;12.238;2022-09-09T01:41:53;1.63;;;1.33;;
6997;SDS011;3539;47.982;12.238;2022-09-09T01:44:22;2.97;;;1.40;;
6997;SDS011;3539;47.982;12.238;2022-09-09T01:46:49;1.80;;;1.30;;
6997;SDS011;3539;47.982;12.238;2022-09-09T01:49:16;1.50;;;1.40;;
6997;SDS011;3539;47.982;12.238;2022-09-09T01:51:43;5.80;;;1.50;;
6997;SDS011;3539;47.982;12.238;2022-09-09T01:54:13;1.50;;;1.40;;
6997;SDS011;3539;47.982;12.238;2022-09-09T01:56:40;1.40;;;1.30;;
6997;SDS011;3539;47.982;12.238;2022-09-09T01:59:16;1.50;;;1.40;;
6997;SDS011;3539;47.982;12.238;2022-09-09T02:01:57;1.70;;;1.50;;
6997;SDS011;3539;47.982;12.238;2022-09-09T02:04:35;2.87;;;1.70;;
6997;SDS011;3539;47.982;12.238;2022-09-09T02:07:03;1.90;;;1.70;;
6997;SDS011;3539;47.982;12.238;2022-09-09T02:09:34;2.80;;;1.90;;
6997;SDS011;3539;47.982;12.238;2022-09-09T02:12:03;4.33;;;1.93;;
6997;SDS011;3539;47.982;12.238;2022-09-09T02:14:36;3.07;;;2.00;;
6997;SDS011;3539;47.982;12.238;2022-09-09T02:17:07;2.57;;;2.07;;
6997;SDS011;3539;47.982;12.238;2022-09-09T02:19:36;1.93;;;1.63;;
6997;SDS011;3539;47.982;12.238;2022-09-09T02:22:04;3.37;;;1.80;;
6997;SDS011;3539;47.982;12.238;2022-09-09T02:24:31;1.83;;;1.60;;
6997;SDS011;3539;47.982;12.238;2022-09-09T02:26:59;1.60;;;1.50;;
6997;SDS011;3539;47.982;12.238;2022-09-09T02:29:29;1.70;;;1.60;;
6997;SDS011;3539;47.982;12.238;2022-09-09T02:32:01;4.17;;;1.97;;
6997;SDS011;3539;47.982;12.238;2022-09-09T02:34:30;2.23;;;1.93;;
6997;SDS011;3539;47.982;12.238;2022-09-09T02:36:58;3.20;;;2.00;;
6997;SDS011;3539;47.982;12.238;2022-09-09T02:39:25;6.27;;;2.10;;
6997;SDS011;3539;47.982;12.238;2022-09-09T02:41:52;2.73;;;2.00;;
6997;SDS011;3539;47.982;12.238;2022-09-09T02:44:19;2.40;;;2.20;;
6997;SDS011;3539;47.982;12.238;2022-09-09T02:47:00;2.20;;;1.97;;
6997;SDS011;3539;47.982;12.238;2022-09-09T02:49:40;3.00;;;2.20;;
6997;SDS011;3539;47.982;12.238;2022-09-09T02:52:11;3.60;;;2.17;;
6997;SDS011;3539;47.982;12.238;2022-09-09T02:54:41;2.00;;;1.87;;
6997;SDS011;3539;47.982;12.238;2022-09-09T02:57:10;2.50;;;2.30;;
6997;SDS011;3539;47.982;12.238;2022-09-09T02:59:38;4.20;;;2.20;;
6997;SDS011;3539;47.982;12.238;2022-09-09T03:02:06;2.20;;;1.87;;
6997;SDS011;3539;47.982;12.238;2022-09-09T03:04:36;2.60;;;2.00;;
6997;SDS011;3539;47.982;12.238;2022-09-09T03:07:03;4.37;;;2.07;;
6997;SDS011;3539;47.982;12.238;2022-09-09T03:09:30;2.47;;;2.07;;
6997;SDS011;3539;47.982;12.238;2022-09-09T03:11:57;3.30;;;2.00;;
6997;SDS011;3539;47.982;12.238;2022-09-09T03:14:24;3.17;;;1.90;;
6997;SDS011;3539;47.982;12.238;2022-09-09T03:16:51;2.17;;;1.97;;
6997;SDS011;3539;47.982;12.238;2022-09-09T03:19:18;2.37;;;1.83;;
6997;SDS011;3539;47.982;12.238;2022-09-09T03:21:46;2.20;;;1.70;;
6997;SDS011;3539;47.982;12.238;2022-09-09T03:24:14;1.87;;;1.37;;
6997;SDS011;3539;47.982;12.238;2022-09-09T03:26:41;2.23;;;1.40;;
6997;SDS011;3539;47.982;12.238;2022-09-09T03:29:09;1.47;;;1.37;;
6997;SDS011;3539;47.982;12.238;2022-09-09T03:31:37;3.33;;;1.50;;
6997;SDS011;3539;47.982;12.238;2022-09-09T03:34:04;1.40;;;1.30;;
6997;SDS011;3539;47.982;12.238;2022-09-09T03:36:31;3.40;;;1.50;;
6997;SDS011;3539;47.982;12.238;2022-09-09T03:38:59;2.03;;;1.40;;
6997;SDS011;3539;47.982;12.238;2022-09-09T03:41:28;1.83;;;1.60;;
6997;SDS011;3539;47.982;12.238;2022-09-09T03:43:54;2.53;;;1.40;;
6997;SDS011;3539;47.982;12.238;2022-09-09T03:46:22;2.23;;;1.40;;
6997;SDS011;3539;47.982;12.238;2022-09-09T03:48:50;2.70;;;1.40;;
6997;SDS011;3539;47.982;12.238;2022-09-09T03:51:17;2.37;;;1.33;;
6997;SDS011;3539;47.982;12.238;2022-09-09T03:53:44;1.70;;;1.30;;
6997;SDS011;3539;47.982;12.238;2022-09-09T03:56:12;2.00;;;1.47;;
6997;SDS011;3539;47.982;12.238;2022-09-09T03:58:39;3.53;;;1.50;;
6997;SDS011;3539;47.982;12.238;2022-09-09T04:01:07;1.67;;;1.30;;
6997;SDS011;3539;47.982;12.238;2022-09-09T04:03:35;1.60;;;1.47;;
6997;SDS011;3539;47.982;12.238;2022-09-09T04:06:03;4.80;;;1.60;;
6997;SDS011;3539;47.982;12.238;2022-09-09T04:08:31;3.13;;;1.50;;
6997;SDS011;3539;47.982;12.238;2022-09-09T04:10:58;3.80;;;1.70;;
6997;SDS011;3539;47.982;12.238;2022-09-09T04:13:32;2.43;;;1.70;;
6997;SDS011;3539;47.982;12.238;2022-09-09T04:15:59;3.10;;;1.43;;
6997;SDS011;3539;47.982;12.238;2022-09-09T04:18:26;2.60;;;1.43;;
6997;SDS011;3539;47.982;12.238;2022-09-09T04:20:54;3.30;;;1.40;;
6997;SDS011;3539;47.982;12.238;2022-09-09T04:38:53;1.57;;;1.47;;
6997;SDS011;3539;47.982;12.238;2022-09-09T04:41:20;2.90;;;1.50;;
6997;SDS011;3539;47.982;12.238;2022-09-09T04:43:47;2.50;;;1.67;;
6997;SDS011;3539;47.982;12.238;2022-09-09T04:46:13;1.60;;;1.50;;
6997;SDS011;3539;47.982;12.238;2022-09-09T04:48:42;1.80;;;1.70;;
6997;SDS011;3539;47.982;12.238;2022-09-09T04:51:09;5.10;;;2.60;;
6997;SDS011;3539;47.982;12.238;2022-09-09T04:53:38;9.37;;;6.90;;
6997;SDS011;3539;47.982;12.238;2022-09-09T04:56:07;17.17;;;15.30;;
6997;SDS011;3539;47.982;12.238;2022-09-09T04:58:35;19.37;;;17.43;;
6997;SDS011;3539;47.982;12.238;2022-09-09T05:01:04;20.63;;;18.40;;
6997;SDS011;3539;47.982;12.238;2022-09-09T05:03:31;7.10;;;4.93;;
6997;SDS011;3539;47.982;12.238;2022-09-09T05:06:02;3.33;;;3.03;;
6997;SDS011;3539;47.982;12.238;2022-09-09T05:08:30;3.23;;;2.20;;
6997;SDS011;3539;47.982;12.238;2022-09-09T05:10:56;3.60;;;1.97;;
6997;SDS011;3539;47.982;12.238;2022-09-09T05:13:25;5.23;;;2.23;;
6997;SDS011;3539;47.982;12.238;2022-09-09T05:15:52;3.60;;;1.70;;
6997;SDS011;3539;47.982;12.238;2022-09-09T05:18:19;1.80;;;1.70;;
6997;SDS011;3539;47.982;12.238;2022-09-09T05:20:47;4.63;;;1.90;;
6997;SDS011;3539;47.982;12.238;2022-09-09T05:23:14;2.97;;;1.97;;
6997;SDS011;3539;47.982;12.238;2022-09-09T05:25:41;2.37;;;1.93;;
6997;SDS011;3539;47.982;12.238;2022-09-09T05:28:08;3.23;;;2.17;;
6997;SDS011;3539;47.982;12.238;2022-09-09T05:30:38;1.90;;;1.80;;
6997;SDS011;3539;47.982;12.238;2022-09-09T05:33:04;2.73;;;2.00;;
6997;SDS011;3539;47.982;12.238;2022-09-09T05:35:34;3.27;;;2.07;;
6997;SDS011;3539;47.982;12.238;2022-09-09T05:38:01;1.97;;;1.63;;
6997;SDS011;3539;47.982;12.238;2022-09-09T05:40:27;1.90;;;1.77;;
6997;SDS011;3539;47.982;12.238;2022-09-09T05:42:55;2.10;;;1.70;;
6997;SDS011;3539;47.982;12.238;2022-09-09T05:45:26;4.07;;;2.70;;
6997;SDS011;3539;47.982;12.238;2022-09-09T05:47:55;1.83;;;1.70;;
6997;SDS011;3539;47.982;12.238;2022-09-09T05:50:22;2.47;;;1.70;;
6997;SDS011;3539;47.982;12.238;2022-09-09T05:52:49;3.40;;;1.60;;
6997;SDS011;3539;47.982;12.238;2022-09-09T05:55:15;2.37;;;1.60;;
6997;SDS011;3539;47.982;12.238;2022-09-09T05:57:47;2.93;;;1.80;;
6997;SDS011;3539;47.982;12.238;2022-09-09T06:00:14;2.63;;;2.10;;
6997;SDS011;3539;47.982;12.238;2022-09-09T06:02:41;2.20;;;1.93;;
6997;SDS011;3539;47.982;12.238;2022-09-09T06:05:10;4.13;;;2.00;;
6997;SDS011;3539;47.982;12.238;2022-09-09T06:07:37;2.10;;;1.90;;
6997;SDS011;3539;47.982;12.238;2022-09-09T06:10:07;2.90;;;1.80;;
6997;SDS011;3539;47.982;12.238;2022-09-09T06:12:34;2.97;;;2.00;;
6997;SDS011;3539;47.982;12.238;2022-09-09T06:15:01;5.00;;;2.37;;
6997;SDS011;3539;47.982;12.238;2022-09-09T06:17:28;2.80;;;1.83;;
6997;SDS011;3539;47.982;12.238;2022-09-09T06:19:55;3.70;;;2.20;;
6997;SDS011;3539;47.982;12.238;2022-09-09T06:22:24;2.93;;;2.10;;
6997;SDS011;3539;47.982;12.238;2022-09-09T06:24:50;2.13;;;1.93;;
6997;SDS011;3539;47.982;12.238;2022-09-09T06:27:18;2.50;;;2.30;;
6997;SDS011;3539;47.982;12.238;2022-09-09T06:29:46;4.10;;;2.50;;
6997;SDS011;3539;47.982;12.238;2022-09-09T06:32:13;3.13;;;2.30;;
6997;SDS011;3539;47.982;12.238;2022-09-09T06:34:40;2.30;;;2.10;;
6997;SDS011;3539;47.982;12.238;2022-09-09T06:37:07;1.93;;;1.83;;
6997;SDS011;3539;47.982;12.238;2022-09-09T06:39:35;2.63;;;1.90;;
6997;SDS011;3539;47.982;12.238;2022-09-09T06:42:02;2.27;;;2.03;;
6997;SDS011;3539;47.982;12.238;2022-09-09T06:44:29;2.10;;;1.90;;
6997;SDS011;3539;47.982;12.238;2022-09-09T06:46:56;2.27;;;1.60;;
6997;SDS011;3539;47.982;12.238;2022-09-09T06:49:23;3.23;;;2.17;;
6997;SDS011;3539;47.982;12.238;2022-09-09T06:51:50;2.93;;;1.90;;
6997;SDS011;3539;47.982;12.238;2022-09-09T06:54:17;2.13;;;1.87;;
6997;SDS011;3539;47.982;12.238;2022-09-09T06:56:46;3.30;;;2.10;;
6997;SDS011;3539;47.982;12.238;2022-09-09T06:59:13;2.20;;;2.00;;
6997;SDS011;3539;47.982;12.238;2022-09-09T07:01:40;3.93;;;2.47;;
6997;SDS011;3539;47.982;12.238;2022-09-09T07:04:08;3.20;;;2.20;;
6997;SDS011;3539;47.982;12.238;2022-09-09T07:06:36;5.90;;;2.20;;
6997;SDS011;3539;47.982;12.238;2022-09-09T07:09:05;2.50;;;2.30;;
6997;SDS011;3539;47.982;12.238;2022-09-09T07:11:33;2.87;;;2.57;;
6997;SDS011;3539;47.982;12.238;2022-09-09T07:14:04;2.50;;;2.20;;
6997;SDS011;3539;47.982;12.238;2022-09-09T07:16:33;5.00;;;2.40;;
6997;SDS011;3539;47.982;12.238;2022-09-09T07:19:02;2.57;;;2.33;;
6997;SDS011;3539;47.982;12.238;2022-09-09T07:21:30;2.20;;;2.00;;
6997;SDS011;3539;47.982;12.238;2022-09-09T07:23:57;4.97;;;1.87;;
6997;SDS011;3539;47.982;12.238;2022-09-09T07:26:25;3.93;;;2.00;;
6997;SDS011;3539;47.982;12.238;2022-09-09T07:28:53;3.00;;;2.20;;
6997;SDS011;3539;47.982;12.238;2022-09-09T07:31:23;2.50;;;1.90;;
6997;SDS011;3539;47.982;12.238;2022-09-09T07:33:51;2.53;;;1.90;;
6997;SDS011;3539;47.982;12.238;2022-09-09T07:36:18;2.30;;;1.90;;
6997;SDS011;3539;47.982;12.238;2022-09-09T07:38:51;1.80;;;1.70;;
6997;SDS011;3539;47.982;12.238;2022-09-09T07:41:20;2.50;;;1.80;;
6997;SDS011;3539;47.982;12.238;2022-09-09T07:43:50;3.63;;;1.60;;
6997;SDS011;3539;47.982;12.238;2022-09-09T07:46:20;2.10;;;1.90;;
6997;SDS011;3539;47.982;12.238;2022-09-09T07:48:50;2.40;;;1.60;;
6997;SDS011;3539;47.982;12.238;2022-09-09T07:51:19;2.50;;;1.80;;
6997;SDS011;3539;47.982;12.238;2022-09-09T07:53:48;1.63;;;1.53;;
6997;SDS011;3539;47.982;12.238;2022-09-09T07:56:18;1.87;;;1.60;;
6997;SDS011;3539;47.982;12.238;2022-09-09T07:58:48;1.90;;;1.70;;
6997;SDS011;3539;47.982;12.238;2022-09-09T08:01:16;3.40;;;1.87;;
6997;SDS011;3539;47.982;12.238;2022-09-09T08:03:45;2.33;;;1.50;;
6997;SDS011;3539;47.982;12.238;2022-09-09T08:06:16;2.23;;;1.40;;
6997;SDS011;3539;47.982;12.238;2022-09-09T08:08:43;1.50;;;1.40;;
6997;SDS011;3539;47.982;12.238;2022-09-09T08:11:14;1.93;;;1.40;;
6997;SDS011;3539;47.982;12.238;2022-09-09T08:13:43;1.50;;;1.40;;
6997;SDS011;3539;47.982;12.238;2022-09-09T08:16:12;1.77;;;1.43;;
6997;SDS011;3539;47.982;12.238;2022-09-09T08:18:41;2.23;;;1.30;;
6997;SDS011;3539;47.982;12.238;2022-09-09T08:21:12;1.67;;;1.53;;
6997;SDS011;3539;47.982;12.238;2022-09-09T08:23:40;2.00;;;1.70;;
6997;SDS011;3539;47.982;12.238;2022-09-09T08:26:09;1.73;;;1.50;;
6997;SDS011;3539;47.982;12.238;2022-09-09T08:28:37;1.87;;;1.50;;
6997;SDS011;3539;47.982;12.238;2022-09-09T08:31:08;3.93;;;1.50;;
6997;SDS011;3539;47.982;12.238;2022-09-09T08:33:36;1.50;;;1.40;;
6997;SDS011;3539;47.982;12.238;2022-09-09T08:36:04;1.47;;;1.37;;
6997;SDS011;3539;47.982;12.238;2022-09-09T08:38:39;2.63;;;1.60;;
6997;SDS011;3539;47.982;12.238;2022-09-09T08:44:09;1.77;;;1.67;;
6997;SDS011;3539;47.982;12.238;2022-09-09T08:46:42;3.27;;;1.60;;
6997;SDS011;3539;47.982;12.238;2022-09-09T08:49:17;2.67;;;1.63;;
6997;SDS011;3539;47.982;12.238;2022-09-09T08:51:50;2.93;;;1.70;;
6997;SDS011;3539;47.982;12.238;2022-09-09T08:54:21;3.20;;;1.50;;
6997;SDS011;3539;47.982;12.238;2022-09-09T08:56:48;1.63;;;1.53;;
6997;SDS011;3539;47.982;12.238;2022-09-09T08:59:16;1.77;;;1.50;;
6997;SDS011;3539;47.982;12.238;2022-09-09T09:01:47;1.60;;;1.50;;
6997;SDS011;3539;47.982;12.238;2022-09-09T09:04:30;1.80;;;1.47;;
6997;SDS011;3539;47.982;12.238;2022-09-09T09:07:06;3.13;;;1.50;;
6997;SDS011;3539;47.982;12.238;2022-09-09T09:09:45;1.27;;;1.17;;
6997;SDS011;3539;47.982;12.238;2022-09-09T09:12:16;2.37;;;1.60;;
6997;SDS011;3539;47.982;12.238;2022-09-09T09:14:44;2.80;;;1.30;;
6997;SDS011;3539;47.982;12.238;2022-09-09T09:17:13;1.90;;;1.50;;
6997;SDS011;3539;47.982;12.238;2022-09-09T09:19:41;2.30;;;1.23;;
6997;SDS011;3539;47.982;12.238;2022-09-09T09:22:11;1.50;;;1.23;;
6997;SDS011;3539;47.982;12.238;2022-09-09T09:24:45;1.70;;;1.50;;
6997;SDS011;3539;47.982;12.238;2022-09-09T09:27:18;1.40;;;1.17;;
6997;SDS011;3539;47.982;12.238;2022-09-09T09:29:48;2.00;;;1.30;;
6997;SDS011;3539;47.982;12.238;2022-09-09T09:32:18;2.70;;;1.50;;
6997;SDS011;3539;47.982;12.238;2022-09-09T09:34:48;2.03;;;1.40;;
6997;SDS011;3539;47.982;12.238;2022-09-09T09:37:15;3.80;;;1.57;;
6997;SDS011;3539;47.982;12.238;2022-09-09T09:39:46;1.77;;;1.33;;
6997;SDS011;3539;47.982;12.238;2022-09-09T09:42:15;1.60;;;1.50;;
6997;SDS011;3539;47.982;12.238;2022-09-09T09:44:43;5.03;;;1.40;;
6997;SDS011;3539;47.982;12.238;2022-09-09T09:47:11;1.43;;;1.30;;
6997;SDS011;3539;47.982;12.238;2022-09-09T09:49:39;1.50;;;1.40;;
6997;SDS011;3539;47.982;12.238;2022-09-09T09:52:17;1.90;;;1.60;;
6997;SDS011;3539;47.982;12.238;2022-09-09T09:54:49;1.70;;;1.60;;
6997;SDS011;3539;47.982;12.238;2022-09-09T09:57:17;1.73;;;1.47;;
6997;SDS011;3539;47.982;12.238;2022-09-09T09:59:44;1.60;;;1.33;;
6997;SDS011;3539;47.982;12.238;2022-09-09T10:02:16;1.53;;;1.43;;
6997;SDS011;3539;47.982;12.238;2022-09-09T10:04:59;1.50;;;1.37;;
6997;SDS011;3539;47.982;12.238;2022-09-09T10:07:27;1.50;;;1.40;;
6997;SDS011;3539;47.982;12.238;2022-09-09T10:09:56;2.17;;;1.67;;
6997;SDS011;3539;47.982;12.238;2022-09-09T10:12:27;3.10;;;1.60;;
6997;SDS011;3539;47.982;12.238;2022-09-09T10:15:01;2.60;;;1.60;;
6997;SDS011;3539;47.982;12.238;2022-09-09T10:17:32;2.63;;;1.80;;
6997;SDS011;3539;47.982;12.238;2022-09-09T10:20:10;2.10;;;1.60;;
6997;SDS011;3539;47.982;12.238;2022-09-09T10:22:44;2.80;;;1.63;;
6997;SDS011;3539;47.982;12.238;2022-09-09T10:25:23;2.60;;;1.70;;
6997;SDS011;3539;47.982;12.238;2022-09-09T10:28:18;1.97;;;1.53;;
6997;SDS011;3539;47.982;12.238;2022-09-09T10:31:09;1.50;;;1.30;;
6997;SDS011;3539;47.982;12.238;2022-09-09T10:33:46;3.03;;;1.67;;
6997;SDS011;3539;47.982;12.238;2022-09-09T10:36:16;2.10;;;1.47;;
6997;SDS011;3539;47.982;12.238;2022-09-09T10:38:46;1.87;;;1.60;;
6997;SDS011;3539;47.982;12.238;2022-09-09T10:41:18;3.07;;;1.53;;
6997;SDS011;3539;47.982;12.238;2022-09-09T10:43:53;2.23;;;1.50;;
6997;SDS011;3539;47.982;12.238;2022-09-09T10:46:47;2.37;;;1.60;;
6997;SDS011;3539;47.982;12.238;2022-09-09T10:49:21;2.23;;;1.47;;
6997;SDS011;3539;47.982;12.238;2022-09-09T10:51:56;2.50;;;2.03;;
6997;SDS011;3539;47.982;12.238;2022-09-09T10:54:32;3.53;;;1.53;;
6997;SDS011;3539;47.982;12.238;2022-09-09T10:57:10;1.60;;;1.50;;
6997;SDS011;3539;47.982;12.238;2022-09-09T10:59:40;2.20;;;1.67;;
6997;SDS011;3539;47.982;12.238;2022-09-09T11:02:12;3.03;;;1.83;;
6997;SDS011;3539;47.982;12.238;2022-09-09T11:04:42;1.97;;;1.73;;
6997;SDS011;3539;47.982;12.238;2022-09-09T11:07:13;2.93;;;1.60;;
6997;SDS011;3539;47.982;12.238;2022-09-09T11:09:43;3.90;;;1.87;;
6997;SDS011;3539;47.982;12.238;2022-09-09T11:12:18;1.77;;;1.60;;
6997;SDS011;3539;47.982;12.238;2022-09-09T11:14:46;2.33;;;1.77;;
6997;SDS011;3539;47.982;12.238;2022-09-09T11:17:16;2.03;;;1.70;;
6997;SDS011;3539;47.982;12.238;2022-09-09T11:19:45;2.27;;;1.40;;
6997;SDS011;3539;47.982;12.238;2022-09-09T11:22:16;1.90;;;1.70;;
6997;SDS011;3539;47.982;12.238;2022-09-09T11:24:49;3.17;;;1.93;;
6997;SDS011;3539;47.982;12.238;2022-09-09T11:27:21;3.10;;;2.00;;
6997;SDS011;3539;47.982;12.238;2022-09-09T11:29:56;2.17;;;1.83;;
6997;SDS011;3539;47.982;12.238;2022-09-09T11:35:30;3.77;;;1.80;;
6997;SDS011;3539;47.982;12.238;2022-09-09T11:38:10;2.10;;;1.63;;
6997;SDS011;3539;47.982;12.238;2022-09-09T11:40:43;2.10;;;1.73;;
6997;SDS011;3539;47.982;12.238;2022-09-09T11:43:12;4.17;;;1.90;;
6997;SDS011;3539;47.982;12.238;2022-09-09T11:45:40;2.10;;;1.70;;
6997;SDS011;3539;47.982;12.238;2022-09-09T11:48:21;1.77;;;1.50;;
6997;SDS011;3539;47.982;12.238;2022-09-09T11:50:57;2.60;;;1.50;;
6997;SDS011;3539;47.982;12.238;2022-09-09T11:53:25;1.70;;;1.60;;
6997;SDS011;3539;47.982;12.238;2022-09-09T11:58:58;2.73;;;1.60;;
6997;SDS011;3539;47.982;12.238;2022-09-09T12:01:37;1.40;;;1.30;;
6997;SDS011;3539;47.982;12.238;2022-09-09T12:06:56;1.40;;;1.30;;
6997;SDS011;3539;47.982;12.238;2022-09-09T12:09:29;2.80;;;1.60;;
6997;SDS011;3539;47.982;12.238;2022-09-09T12:14:57;2.33;;;1.40;;
6997;SDS011;3539;47.982;12.238;2022-09-09T12:17:26;2.20;;;1.30;;
6997;SDS011;3539;47.982;12.238;2022-09-09T12:20:02;3.03;;;1.47;;
6997;SDS011;3539;47.982;12.238;2022-09-09T12:22:35;1.50;;;1.27;;
6997;SDS011;3539;47.982;12.238;2022-09-09T12:25:09;1.30;;;1.20;;
6997;SDS011;3539;47.982;12.238;2022-09-09T12:27:45;2.90;;;1.30;;
6997;SDS011;3539;47.982;12.238;2022-09-09T12:30:17;2.20;;;1.30;;
6997;SDS011;3539;47.982;12.238;2022-09-09T12:32:44;1.53;;;1.43;;
6997;SDS011;3539;47.982;12.238;2022-09-09T12:35:11;2.40;;;1.60;;
6997;SDS011;3539;47.982;12.238;2022-09-09T12:37:41;2.00;;;1.70;;
6997;SDS011;3539;47.982;12.238;2022-09-09T12:40:19;2.77;;;2.50;;
6997;SDS011;3539;47.982;12.238;2022-09-09T12:42:48;3.20;;;2.20;;
6997;SDS011;3539;47.982;12.238;2022-09-09T12:45:17;2.77;;;2.40;;
6997;SDS011;3539;47.982;12.238;2022-09-09T12:47:46;2.30;;;2.10;;
6997;SDS011;3539;47.982;12.238;2022-09-09T12:50:15;2.87;;;2.00;;
6997;SDS011;3539;47.982;12.238;2022-09-09T12:52:42;1.77;;;1.63;;
6997;SDS011;3539;47.982;12.238;2022-09-09T12:55:14;3.93;;;2.30;;
6997;SDS011;3539;47.982;12.238;2022-09-09T12:57:43;2.63;;;1.77;;
6997;SDS011;3539;47.982;12.238;2022-09-09T13:00:12;2.30;;;2.10;;
6997;SDS011;3539;47.982;12.238;2022-09-09T13:02:50;1.90;;;1.47;;
6997;SDS011;3539;47.982;12.238;2022-09-09T13:05:19;1.70;;;1.60;;
6997;SDS011;3539;47.982;12.238;2022-09-09T13:07:47;2.33;;;1.60;;
6997;SDS011;3539;47.982;12.238;2022-09-09T13:10:15;4.93;;;1.90;;
6997;SDS011;3539;47.982;12.238;2022-09-09T13:12:48;2.40;;;1.63;;
6997;SDS011;3539;47.982;12.238;2022-09-09T13:15:18;3.43;;;1.60;;
6997;SDS011;3539;47.982;12.238;2022-09-09T13:17:55;2.53;;;1.80;;
6997;SDS011;3539;47.982;12.238;2022-09-09T13:20:22;1.97;;;1.83;;
6997;SDS011;3539;47.982;12.238;2022-09-09T13:22:51;2.60;;;1.90;;
6997;SDS011;3539;47.982;12.238;2022-09-09T13:25:20;2.23;;;1.77;;
6997;SDS011;3539;47.982;12.238;2022-09-09T13:27:55;1.73;;;1.63;;
6997;SDS011;3539;47.982;12.238;2022-09-09T13:30:24;1.80;;;1.67;;
6997;SDS011;3539;47.982;12.238;2022-09-09T13:33:01;1.60;;;1.50;;
6997;SDS011;3539;47.982;12.238;2022-09-09T13:35:29;2.00;;;1.40;;
6997;SDS011;3539;47.982;12.238;2022-09-09T13:37:57;2.50;;;1.30;;
6997;SDS011;3539;47.982;12.238;2022-09-09T13:40:25;2.50;;;1.20;;
6997;SDS011;3539;47.982;12.238;2022-09-09T13:42:52;1.40;;;1.30;;
6997;SDS011;3539;47.982;12.238;2022-09-09T13:45:22;1.50;;;1.20;;
6997;SDS011;3539;47.982;12.238;2022-09-09T13:47:51;3.33;;;1.60;;
6997;SDS011;3539;47.982;12.238;2022-09-09T13:50:22;2.67;;;1.40;;
6997;SDS011;3539;47.982;12.238;2022-09-09T13:52:51;1.57;;;1.40;;
6997;SDS011;3539;47.982;12.238;2022-09-09T13:55:19;2.47;;;1.03;;
6997;SDS011;3539;47.982;12.238;2022-09-09T13:57:50;1.30;;;1.20;;
6997;SDS011;3539;47.982;12.238;2022-09-09T14:00:18;1.60;;;1.10;;
6997;SDS011;3539;47.982;12.238;2022-09-09T14:02:45;1.43;;;1.20;;
6997;SDS011;3539;47.982;12.238;2022-09-09T14:05:12;3.03;;;1.30;;
6997;SDS011;3539;47.982;12.238;2022-09-09T14:07:41;1.20;;;1.10;;
6997;SDS011;3539;47.982;12.238;2022-09-09T14:10:09;1.20;;;1.10;;
6997;SDS011;3539;47.982;12.238;2022-09-09T14:12:36;2.77;;;1.67;;
6997;SDS011;3539;47.982;12.238;2022-09-09T14:15:03;2.03;;;1.30;;
6997;SDS011;3539;47.982;12.238;2022-09-09T14:17:31;1.90;;;1.20;;
6997;SDS011;3539;47.982;12.238;2022-09-09T14:19:58;1.50;;;1.13;;
6997;SDS011;3539;47.982;12.238;2022-09-09T14:22:25;2.70;;;1.30;;
6997;SDS011;3539;47.982;12.238;2022-09-09T14:24:54;1.27;;;1.17;;
6997;SDS011;3539;47.982;12.238;2022-09-09T14:27:22;1.33;;;1.23;;
6997;SDS011;3539;47.982;12.238;2022-09-09T14:29:51;1.53;;;1.27;;
6997;SDS011;3539;47.982;12.238;2022-09-09T14:32:17;1.40;;;1.30;;
6997;SDS011;3539;47.982;12.238;2022-09-09T14:34:44;3.50;;;1.47;;
6997;SDS011;3539;47.982;12.238;2022-09-09T14:37:11;2.30;;;1.40;;
6997;SDS011;3539;47.982;12.238;2022-09-09T14:39:38;1.50;;;1.30;;
6997;SDS011;3539;47.982;12.238;2022-09-09T14:42:10;1.47;;;1.30;;
6997;SDS011;3539;47.982;12.238;2022-09-09T14:44:37;1.80;;;1.10;;
6997;SDS011;3539;47.982;12.238;2022-09-09T14:47:04;1.30;;;1.10;;
6997;SDS011;3539;47.982;12.238;2022-09-09T14:49:33;1.87;;;1.17;;
6997;SDS011;3539;47.982;12.238;2022-09-09T14:51:59;2.73;;;1.20;;
6997;SDS011;3539;47.982;12.238;2022-09-09T14:54:29;1.70;;;1.10;;
6997;SDS011;3539;47.982;12.238;2022-09-09T14:56:57;1.50;;;1.13;;
6997;SDS011;3539;47.982;12.238;2022-09-09T14:59:25;1.50;;;1.00;;
6997;SDS011;3539;47.982;12.238;2022-09-09T15:01:53;1.17;;;1.07;;
6997;SDS011;3539;47.982;12.238;2022-09-09T15:04:20;1.93;;;1.20;;
6997;SDS011;3539;47.982;12.238;2022-09-09T15:06:47;2.07;;;0.90;;
6997;SDS011;3539;47.982;12.238;2022-09-09T15:09:17;1.80;;;1.70;;
6997;SDS011;3539;47.982;12.238;2022-09-09T15:11:44;2.20;;;1.90;;
6997;SDS011;3539;47.982;12.238;2022-09-09T15:14:11;1.70;;;1.60;;
6997;SDS011;3539;47.982;12.238;2022-09-09T15:16:40;2.03;;;1.30;;
6997;SDS011;3539;47.982;12.238;2022-09-09T15:19:07;1.23;;;1.13;;
6997;SDS011;3539;47.982;12.238;2022-09-09T15:21:35;3.73;;;1.63;;
6997;SDS011;3539;47.982;12.238;2022-09-09T15:24:02;1.47;;;1.20;;
6997;SDS011;3539;47.982;12.238;2022-09-09T15:26:32;1.20;;;1.10;;
6997;SDS011;3539;47.982;12.238;2022-09-09T15:28:59;1.70;;;1.20;;
6997;SDS011;3539;47.982;12.238;2022-09-09T15:31:26;1.63;;;0.90;;
6997;SDS011;3539;47.982;12.238;2022-09-09T15:33:57;1.57;;;0.97;;
6997;SDS011;3539;47.982;12.238;2022-09-09T15:36:27;1.40;;;1.00;;
6997;SDS011;3539;47.982;12.238;2022-09-09T15:38:55;1.63;;;1.00;;
6997;SDS011;3539;47.982;12.238;2022-09-09T15:41:22;1.67;;;1.10;;
6997;SDS011;3539;47.982;12.238;2022-09-09T15:43:50;1.87;;;1.10;;
6997;SDS011;3539;47.982;12.238;2022-09-09T15:46:29;1.33;;;1.23;;